Time;durP1;ratioP1;P1;durP2;ratioP2;P2;SDS_P1;SDS_P2;PMS_P1;PMS_P2;Temp;Humidity;BMP_temperature;BMP_pressure;BME280_temperature;BME280_humidity;BME280_pressure;Samples;Min_cycle;Max_cycle;Signal;HPM_P1;HPM_P2
2023/01/26 00:01:17;;;;;;;31.08;11.70;;;0.20;99.90;;;;;;5090733;28;20036;-55
2023/01/26 00:03:44;;;;;;;30.50;10.93;;;1.00;99.90;;;;;;5089756;28;20044;-56
2023/01/26 00:06:13;;;;;;;30.25;11.52;;;0.20;99.90;;;;;;5090273;28;20043;-57
2023/01/26 00:08:42;;;;;;;31.38;11.75;;;0.20;99.90;;;;;;5088514;28;20101;-57
2023/01/26 00:11:12;;;;;;;26.25;10.52;;;0.20;99.90;;;;;;5072329;28;20036;-55
2023/01/26 00:13:39;;;;;;;33.08;11.90;;;0.00;99.90;;;;;;5071659;28;20070;-57
2023/01/26 00:16:13;;;;;;;28.90;10.90;;;0.10;99.90;;;;;;5088532;28;20113;-57
2023/01/26 00:18:41;;;;;;;26.27;11.18;;;0.00;99.90;;;;;;5089345;28;20036;-53
2023/01/26 00:21:15;;;;;;;26.55;10.73;;;0.00;99.90;;;;;;5090237;28;20493;-53
2023/01/26 00:23:42;;;;;;;26.27;10.75;;;0.00;99.90;;;;;;5087425;28;20077;-55
2023/01/26 00:26:10;;;;;;;;;;;0.00;99.90;;;;;;5090959;28;20403;-54
2023/01/26 00:28:38;;;;;;;28.13;9.98;;;-0.10;99.90;;;;;;5089826;28;20372;-56
2023/01/26 00:31:07;;;;;;;25.92;10.05;;;-0.10;99.90;;;;;;5071610;28;20036;-57
2023/01/26 00:33:35;;;;;;;29.08;10.55;;;-0.20;99.90;;;;;;5090797;28;20139;-53
2023/01/26 00:36:02;;;;;;;27.80;10.00;;;-0.10;99.90;;;;;;5065555;28;20105;-54
2023/01/26 00:38:30;;;;;;;27.15;10.57;;;-0.10;99.90;;;;;;5090601;28;20058;-53
2023/01/26 00:40:57;;;;;;;27.00;10.82;;;-0.10;99.90;;;;;;5071496;28;20067;-52
2023/01/26 00:43:24;;;;;;;26.95;11.00;;;0.00;99.90;;;;;;5072063;28;20101;-54
2023/01/26 00:45:50;;;;;;;27.10;11.85;;;0.00;99.90;;;;;;5070344;28;20105;-53
2023/01/26 00:48:18;;;;;;;26.88;9.85;;;0.10;99.90;;;;;;5072160;28;20040;-54
2023/01/26 00:50:45;;;;;;;29.20;10.45;;;0.10;99.90;;;;;;5071136;28;20059;-54
2023/01/26 00:53:12;;;;;;;28.70;11.68;;;0.10;99.90;;;;;;5089385;28;20032;-53
2023/01/26 00:55:39;;;;;;;27.75;11.05;;;0.10;99.90;;;;;;5109839;28;20385;-51
2023/01/26 00:58:08;;;;;;;28.50;10.73;;;0.20;99.90;;;;;;5075941;28;20047;-54
2023/01/26 01:00:36;;;;;;;32.88;11.20;;;0.30;99.90;;;;;;5092204;28;20052;-56
2023/01/26 01:03:05;;;;;;;29.75;10.27;;;0.20;99.90;;;;;;5085659;28;20032;-53
2023/01/26 01:05:32;;;;;;;27.42;10.57;;;0.30;99.90;;;;;;5088367;28;20097;-55
2023/01/26 01:07:59;;;;;;;;;;;0.20;99.90;;;;;;5094379;28;20040;-54
2023/01/26 01:10:26;;;;;;;23.80;9.60;;;0.30;99.90;;;;;;5072068;28;19931;-57
2023/01/26 01:12:53;;;;;;;;;;;0.30;99.90;;;;;;5111301;28;20439;-58
2023/01/26 01:15:22;;;;;;;29.13;10.90;;;0.20;99.90;;;;;;5104487;28;19920;-57
2023/01/26 01:17:49;;;;;;;27.98;10.82;;;0.10;99.90;;;;;;5093976;28;20104;-56
2023/01/26 01:20:16;;;;;;;22.80;9.85;;;0.10;99.90;;;;;;5072375;28;20051;-57
2023/01/26 01:22:44;;;;;;;26.35;10.60;;;0.20;99.90;;;;;;5090285;28;20048;-57
2023/01/26 01:25:11;;;;;;;20.17;7.85;;;0.20;99.90;;;;;;5084357;28;20634;-57
2023/01/26 01:27:38;;;;;;;30.13;10.65;;;0.20;99.90;;;;;;5075485;28;20101;-55
2023/01/26 01:30:06;;;;;;;21.55;8.80;;;0.10;99.90;;;;;;5073872;28;20043;-56
2023/01/26 01:32:38;;;;;;;24.27;9.35;;;0.20;99.90;;;;;;5104654;28;20051;-57
2023/01/26 01:35:06;;;;;;;24.75;9.70;;;0.10;99.90;;;;;;5100945;28;20454;-56
2023/01/26 01:37:33;;;;;;;21.48;9.77;;;0.10;99.90;;;;;;5091625;28;20443;-57
2023/01/26 01:40:00;;;;;;;25.83;9.48;;;0.10;99.90;;;;;;5109960;28;20082;-57
2023/01/26 01:42:27;;;;;;;23.42;9.43;;;0.20;99.90;;;;;;5094922;28;20043;-56
2023/01/26 01:45:24;;;;;;;27.23;9.77;;;0.20;99.90;;;;;;5080554;28;20051;-55
2023/01/26 01:48:01;;;;;;;25.20;9.40;;;0.20;99.90;;;;;;5082440;28;20058;-57
2023/01/26 01:50:33;;;;;;;29.70;11.05;;;0.20;99.90;;;;;;5090524;28;20047;-57
2023/01/26 01:53:01;;;;;;;28.70;10.70;;;0.20;99.90;;;;;;5092182;28;20092;-56
2023/01/26 01:55:28;;;;;;;27.45;10.13;;;0.20;99.90;;;;;;5072026;28;20041;-57
2023/01/26 01:57:58;;;;;;;;;;;0.10;99.90;;;;;;5081880;28;20044;-57
2023/01/26 02:00:26;;;;;;;25.95;10.57;;;0.10;99.90;;;;;;5090247;28;20019;-56
2023/01/26 02:03:10;;;;;;;23.98;9.88;;;0.10;99.90;;;;;;5107686;28;20040;-56
2023/01/26 02:05:47;;;;;;;23.95;9.95;;;0.10;99.90;;;;;;5071444;28;20045;-57
2023/01/26 02:08:17;;;;;;;23.50;9.95;;;0.10;99.90;;;;;;5078916;28;20488;-57
2023/01/26 02:10:47;;;;;;;29.85;11.18;;;0.10;99.90;;;;;;5095426;28;20055;-54
2023/01/26 02:13:16;;;;;;;27.83;10.40;;;0.00;99.90;;;;;;5083706;28;20040;-54
2023/01/26 02:15:43;;;;;;;23.23;9.90;;;0.00;99.90;;;;;;5099780;22;20037;-62
2023/01/26 02:18:10;;;;;;;26.60;10.55;;;0.00;99.90;;;;;;5046954;28;20870;-62
2023/01/26 02:20:45;;;;;;;;;;;-0.10;99.90;;;;;;5058945;28;20505;-62
2023/01/26 02:23:39;;;;;;;26.75;9.20;;;-0.10;99.90;;;;;;5069734;28;19928;-62
2023/01/26 02:26:18;;;;;;;21.88;8.88;;;-0.10;99.90;;;;;;5069785;28;20047;-62
2023/01/26 02:28:46;;;;;;;24.67;8.60;;;-0.10;99.90;;;;;;5055211;28;20592;-62
2023/01/26 02:31:13;;;;;;;27.15;9.95;;;-0.10;99.90;;;;;;5054433;28;20044;-62
2023/01/26 02:33:41;;;;;;;24.65;9.73;;;-0.10;99.90;;;;;;5054097;28;20158;-62
2023/01/26 02:36:27;;;;;;;26.60;9.43;;;-0.10;99.90;;;;;;5063391;28;20052;-62
2023/01/26 02:38:59;;;;;;;22.77;8.52;;;-0.10;99.90;;;;;;5064036;28;20037;-62
2023/01/26 02:44:13;;;;;;;26.80;9.55;;;-0.10;99.90;;;;;;5034180;28;20044;-62
2023/01/26 02:46:39;;;;;;;26.15;10.32;;;0.00;99.90;;;;;;5050553;28;20060;-62
2023/01/26 02:51:52;;;;;;;24.23;8.38;;;-0.20;99.90;;;;;;5068101;28;20063;-62
2023/01/26 02:57:05;;;;;;;20.70;9.43;;;-0.20;99.90;;;;;;5043938;28;20513;-62
2023/01/26 02:59:32;;;;;;;18.95;7.38;;;-0.30;99.90;;;;;;5034442;28;20049;-62
2023/01/26 03:01:58;;;;;;;22.67;8.95;;;-0.20;99.90;;;;;;5043776;28;20043;-62
2023/01/26 03:04:26;;;;;;;18.08;8.48;;;-0.20;99.90;;;;;;5048895;28;20044;-62
2023/01/26 03:06:52;;;;;;;23.27;8.63;;;-0.30;99.90;;;;;;5052350;28;20110;-62
2023/01/26 03:09:19;;;;;;;22.38;9.07;;;-0.30;99.90;;;;;;5053593;28;20121;-62
2023/01/26 03:11:46;;;;;;;23.02;8.65;;;-0.30;99.90;;;;;;5052883;28;20551;-62
2023/01/26 03:14:15;;;;;;;19.33;8.27;;;-0.30;99.90;;;;;;5070184;28;20048;-63
2023/01/26 03:16:42;;;;;;;23.67;9.20;;;-0.30;99.90;;;;;;5084119;28;20044;-63
2023/01/26 03:27:46;;;;;;;22.85;8.52;;;-0.30;99.90;;;;;;5053158;28;20056;-63
2023/01/26 03:30:17;;;;;;;24.13;8.63;;;-0.30;99.90;;;;;;5056387;28;20048;-63
2023/01/26 03:32:45;;;;;;;25.63;9.15;;;-0.40;99.90;;;;;;5073302;28;20040;-63
2023/01/26 03:35:14;;;;;;;23.42;9.52;;;-0.40;99.90;;;;;;5060127;28;20045;-62
2023/01/26 03:37:43;;;;;;;26.65;9.10;;;-0.30;99.90;;;;;;5051467;28;20048;-62
2023/01/26 03:56:54;;;;;;;24.15;8.52;;;-0.40;99.90;;;;;;5055670;28;20055;-62
2023/01/26 03:59:36;;;;;;;23.88;8.95;;;-0.40;99.90;;;;;;5046178;28;20135;-61
2023/01/26 04:10:29;;;;;;;23.30;8.27;;;-0.40;99.90;;;;;;5041325;28;19967;-61
2023/01/26 04:21:29;;;;;;;24.52;8.43;;;-0.50;99.90;;;;;;5041421;28;20064;-62
2023/01/26 04:23:58;;;;;;;23.10;8.18;;;-0.40;99.90;;;;;;5055857;28;20076;-62
2023/01/26 04:26:35;;;;;;;22.83;8.30;;;-0.50;99.90;;;;;;5078099;28;20048;-63
2023/01/26 04:29:08;;;;;;;22.67;8.32;;;-0.50;99.90;;;;;;5035843;28;20123;-62
2023/01/26 04:31:35;;;;;;;25.88;9.07;;;-0.50;99.90;;;;;;5051326;28;20037;-62
2023/01/26 04:34:03;;;;;;;20.80;8.82;;;-0.50;99.90;;;;;;5050894;28;20065;-62
2023/01/26 04:36:30;;;;;;;26.10;9.35;;;-0.50;99.90;;;;;;5057331;28;20047;-62
2023/01/26 04:38:57;;;;;;;24.75;9.32;;;-0.40;99.90;;;;;;5040625;28;20049;-62
2023/01/26 04:41:24;;;;;;;23.40;9.52;;;-0.50;99.90;;;;;;5044745;28;20041;-62
2023/01/26 04:44:00;;;;;;;21.90;8.52;;;-0.40;99.90;;;;;;5057109;28;20059;-62
2023/01/26 04:46:27;;;;;;;24.58;9.45;;;-0.40;99.90;;;;;;5051589;28;20052;-60
2023/01/26 04:48:53;;;;;;;25.38;8.80;;;-0.40;99.90;;;;;;5049762;28;20561;-61
2023/01/26 04:51:21;;;;;;;23.23;9.05;;;-0.40;99.90;;;;;;5047276;28;20045;-61
2023/01/26 04:53:49;;;;;;;22.67;8.98;;;-0.40;99.90;;;;;;5032362;28;20497;-61
2023/01/26 04:56:29;;;;;;;20.20;8.95;;;-0.40;99.90;;;;;;5048237;28;20156;-62
2023/01/26 04:58:59;;;;;;;19.15;8.50;;;-0.40;99.90;;;;;;5065680;28;20051;-63
2023/01/26 05:01:26;;;;;;;20.85;8.20;;;-0.40;99.90;;;;;;5035694;28;20049;-62
2023/01/26 05:03:53;;;;;;;;;;;-0.50;99.90;;;;;;5047916;28;20037;-62
2023/01/26 05:06:21;;;;;;;21.65;6.18;;;-0.50;99.90;;;;;;5048200;28;20381;-62
2023/01/26 05:08:48;;;;;;;19.38;7.88;;;-0.50;99.90;;;;;;5043030;28;20051;-62
2023/01/26 05:11:16;;;;;;;;;;;-0.40;99.90;;;;;;5055944;28;20123;-62
2023/01/26 05:13:55;;;;;;;23.58;8.45;;;-0.50;99.90;;;;;;5089211;28;19943;-62
2023/01/26 05:16:34;;;;;;;25.02;9.15;;;-0.40;99.90;;;;;;5051406;28;20060;-62
2023/01/26 05:19:05;;;;;;;22.42;9.38;;;-0.50;99.90;;;;;;5063201;28;20045;-62
2023/01/26 05:21:42;;;;;;;20.23;8.27;;;-0.50;99.90;;;;;;5043833;28;20467;-61
2023/01/26 05:24:10;;;;;;;20.02;8.00;;;-0.50;99.90;;;;;;5047800;28;20074;-62
2023/01/26 05:27:19;;;;;;;20.92;7.55;;;-0.50;99.90;;;;;;5064554;28;20551;-61
2023/01/26 05:29:42;;;;;;;49.70;17.20;;;-0.50;99.90;;;;;;5062761;28;20132;-62
2023/01/26 05:32:10;;;;;;;43.05;16.55;;;-0.50;99.90;;;;;;5057447;28;20464;-62
2023/01/26 05:34:36;;;;;;;23.90;10.70;;;-0.50;99.90;;;;;;5068508;28;20192;-62
2023/01/26 05:37:04;;;;;;;22.27;9.70;;;-0.50;99.90;;;;;;5035778;28;20162;-62
2023/01/26 05:39:33;;;;;;;22.58;8.82;;;-0.50;99.90;;;;;;5055619;28;20052;-62
2023/01/26 05:42:03;;;;;;;21.00;9.25;;;-0.50;99.90;;;;;;5041393;28;20094;-62
2023/01/26 05:44:55;;;;;;;20.70;9.65;;;-0.50;99.90;;;;;;5051633;28;20432;-61
2023/01/26 05:47:23;;;;;;;21.85;9.32;;;-0.50;99.90;;;;;;5070397;28;20051;-62
2023/01/26 05:49:50;;;;;;;;;;;-0.50;99.90;;;;;;5067912;28;20508;-62
2023/01/26 05:52:22;;;;;;;26.52;9.95;;;-0.50;99.90;;;;;;5063527;28;20415;-62
2023/01/26 05:54:49;;;;;;;24.88;9.90;;;-0.60;99.90;;;;;;5059155;28;20765;-61
2023/01/26 05:57:17;;;;;;;26.08;11.10;;;-0.50;99.90;;;;;;5054971;28;20052;-62
2023/01/26 05:59:49;;;;;;;31.27;10.65;;;-0.50;99.90;;;;;;5063969;28;20041;-62
2023/01/26 06:02:16;;;;;;;25.85;10.45;;;-0.60;99.90;;;;;;5053345;28;20036;-61
2023/01/26 06:04:44;;;;;;;;;;;-0.60;99.90;;;;;;5054507;28;20098;-62
2023/01/26 06:07:12;;;;;;;25.85;10.63;;;-0.60;99.90;;;;;;5055933;28;19927;-61
2023/01/26 06:10:06;;;;;;;29.05;10.40;;;-0.60;99.90;;;;;;5065054;28;20044;-61
2023/01/26 06:12:59;;;;;;;24.45;10.02;;;-0.60;99.90;;;;;;5035696;28;20060;-62
2023/01/26 06:15:46;;;;;;;24.20;10.02;;;-0.60;99.90;;;;;;5056328;28;20794;-62
2023/01/26 06:18:13;;;;;;;25.70;9.43;;;-0.60;99.90;;;;;;5070808;28;20048;-62
2023/01/26 06:20:46;;;;;;;28.10;9.80;;;-0.60;99.90;;;;;;5071330;28;20072;-62
2023/01/26 06:23:13;;;;;;;21.48;7.25;;;-0.70;99.90;;;;;;5062425;28;20052;-62
2023/01/26 06:25:42;;;;;;;28.30;9.70;;;-0.60;99.90;;;;;;5071037;28;20048;-62
2023/01/26 06:28:09;;;;;;;25.10;9.25;;;-0.60;99.90;;;;;;5071616;28;20408;-62
2023/01/26 06:30:36;;;;;;;18.80;7.03;;;-0.60;99.90;;;;;;5055504;28;20413;-61
2023/01/26 06:33:07;;;;;;;22.77;8.75;;;-0.60;99.90;;;;;;5064034;28;20484;-61
2023/01/26 06:35:36;;;;;;;23.80;9.52;;;-0.60;99.90;;;;;;5066645;28;20052;-62
2023/01/26 06:38:08;;;;;;;20.15;8.93;;;-0.50;99.90;;;;;;5063464;28;20045;-62
2023/01/26 06:40:35;;;;;;;23.73;8.90;;;-0.50;99.90;;;;;;5064579;28;20588;-62
2023/01/26 06:43:02;;;;;;;23.95;8.73;;;-0.50;99.90;;;;;;5051728;28;20048;-61
2023/01/26 06:45:31;;;;;;;25.73;9.77;;;-0.50;99.90;;;;;;5071787;28;20045;-62
2023/01/26 06:47:58;;;;;;;25.52;9.57;;;-0.40;99.90;;;;;;5053747;28;20501;-62
2023/01/26 06:50:31;;;;;;;22.77;9.00;;;-0.40;99.90;;;;;;5045884;28;20106;-62
2023/01/26 06:52:59;;;;;;;18.48;8.23;;;-0.40;99.90;;;;;;5038637;28;20550;-62
2023/01/26 06:55:50;;;;;;;23.85;9.85;;;-0.50;99.90;;;;;;5082716;28;20067;-61
2023/01/26 06:58:44;;;;;;;24.33;9.65;;;-0.50;99.90;;;;;;5055632;28;20059;-61
2023/01/26 07:01:38;;;;;;;24.33;10.27;;;-0.40;99.90;;;;;;5054723;28;20053;-61
2023/01/26 07:04:05;;;;;;;30.90;11.07;;;-0.40;99.90;;;;;;5052104;28;20048;-61
2023/01/26 07:06:32;;;;;;;31.90;11.35;;;-0.40;99.90;;;;;;5050847;28;20086;-62
2023/01/26 07:08:58;;;;;;;31.23;11.55;;;-0.30;99.90;;;;;;5054987;28;20032;-61
2023/01/26 07:11:25;;;;;;;27.02;10.88;;;-0.30;99.90;;;;;;5054497;28;20515;-62
2023/01/26 07:13:52;;;;;;;32.40;12.40;;;-0.30;99.90;;;;;;5051514;28;20037;-61
2023/01/26 07:16:19;;;;;;;25.50;9.88;;;-0.30;99.90;;;;;;5050928;28;20416;-62
2023/01/26 07:18:45;;;;;;;27.65;11.73;;;-0.30;99.90;;;;;;5059766;28;20078;-62
2023/01/26 07:21:14;;;;;;;32.95;13.13;;;-0.30;99.90;;;;;;5055918;28;20037;-61
2023/01/26 07:23:41;;;;;;;29.92;11.55;;;-0.30;99.90;;;;;;5051036;28;20056;-62
2023/01/26 07:26:08;;;;;;;23.55;7.85;;;-0.30;99.90;;;;;;5050316;28;20732;-62
2023/01/26 07:28:35;;;;;;;28.60;10.02;;;-0.40;99.90;;;;;;5051415;28;20053;-62
2023/01/26 07:31:05;;;;;;;23.45;9.38;;;-0.50;99.90;;;;;;5053061;28;20489;-62
2023/01/26 07:33:33;;;;;;;24.67;10.05;;;-0.50;99.90;;;;;;5050800;28;20067;-62
2023/01/26 07:36:01;;;;;;;23.55;9.50;;;-0.40;99.90;;;;;;5050055;28;20037;-62
2023/01/26 07:38:28;;;;;;;23.25;9.57;;;-0.40;99.90;;;;;;5048130;28;20105;-62
2023/01/26 07:40:55;;;;;;;;;;;-0.40;99.90;;;;;;5055062;28;20106;-61
2023/01/26 07:43:22;;;;;;;28.75;9.77;;;-0.40;99.90;;;;;;5049829;28;19920;-61
2023/01/26 07:45:53;;;;;;;25.75;9.23;;;-0.30;99.90;;;;;;5050494;28;20044;-61
2023/01/26 07:48:22;;;;;;;27.55;9.32;;;-0.30;99.90;;;;;;5055733;28;20740;-62
2023/01/26 07:50:50;;;;;;;28.30;9.93;;;-0.30;99.90;;;;;;5050644;28;20055;-61
2023/01/26 07:53:21;;;;;;;29.60;11.50;;;-0.30;99.90;;;;;;5049647;28;20052;-61
2023/01/26 07:55:48;;;;;;;30.20;11.82;;;-0.30;99.90;;;;;;5052589;28;20036;-62
2023/01/26 07:58:17;;;;;;;30.42;12.40;;;-0.30;99.90;;;;;;5050137;28;20044;-62
2023/01/26 08:00:46;;;;;;;28.00;10.35;;;-0.40;99.90;;;;;;5050587;28;20056;-62
2023/01/26 08:03:13;;;;;;;30.20;10.88;;;-0.30;99.90;;;;;;5049557;28;20092;-62
2023/01/26 08:05:42;;;;;;;;;;;-0.30;99.90;;;;;;5052283;28;20099;-62
2023/01/26 08:08:09;;;;;;;27.90;10.30;;;-0.20;99.90;;;;;;5049486;28;19924;-62
2023/01/26 08:10:35;;;;;;;29.17;9.88;;;-0.20;99.90;;;;;;5051215;28;20045;-61
2023/01/26 08:13:02;;;;;;;27.10;10.70;;;-0.20;99.90;;;;;;5049355;28;20480;-61
2023/01/26 08:15:29;;;;;;;33.20;11.75;;;-0.20;99.90;;;;;;5068565;22;20045;-60
2023/01/26 08:18:14;;;;;;;28.98;11.00;;;-0.10;99.90;;;;;;5087014;28;20051;-60
2023/01/26 08:20:47;;;;;;;25.55;10.02;;;-0.10;99.90;;;;;;5090851;28;20086;-60
2023/01/26 08:23:14;;;;;;;27.33;9.80;;;-0.10;99.90;;;;;;5083467;28;20108;-60
2023/01/26 08:25:41;;;;;;;18.88;7.80;;;-0.10;99.90;;;;;;5111095;28;20104;-60
2023/01/26 08:28:08;;;;;;;26.35;9.25;;;-0.10;99.90;;;;;;5105189;28;20052;-60
2023/01/26 08:30:35;;;;;;;23.83;9.10;;;0.00;99.90;;;;;;5122989;28;20065;-60
2023/01/26 08:33:03;;;;;;;23.23;10.10;;;0.00;99.90;;;;;;5106313;28;20101;-60
2023/01/26 08:35:31;;;;;;;28.60;10.35;;;0.00;99.90;;;;;;5090650;28;20040;-60
2023/01/26 08:37:58;;;;;;;31.90;11.40;;;0.00;99.90;;;;;;5097417;28;20044;-60
2023/01/26 08:40:25;;;;;;;28.30;11.00;;;0.00;99.90;;;;;;5108708;28;20474;-60
2023/01/26 08:42:52;;;;;;;28.58;10.93;;;0.10;99.90;;;;;;5102841;28;20126;-60
2023/01/26 08:45:18;;;;;;;27.48;10.27;;;0.10;99.90;;;;;;5097173;28;20029;-60
2023/01/26 08:47:50;;;;;;;24.98;9.73;;;0.10;99.90;;;;;;5089822;28;20497;-60
2023/01/26 08:50:16;;;;;;;24.52;9.50;;;0.20;99.90;;;;;;5090232;28;20032;-60
2023/01/26 08:52:44;;;;;;;22.13;8.10;;;0.10;99.90;;;;;;5095244;28;20043;-60
2023/01/26 08:55:11;;;;;;;20.35;8.45;;;0.10;99.90;;;;;;5116561;28;20039;-61
2023/01/26 08:57:37;;;;;;;23.13;8.35;;;0.10;99.90;;;;;;5096503;28;20279;-60
2023/01/26 09:00:06;;;;;;;26.42;9.65;;;0.10;99.90;;;;;;5090194;28;20071;-60
2023/01/26 09:02:32;;;;;;;24.77;8.57;;;0.10;99.90;;;;;;5088680;28;20044;-61
2023/01/26 09:04:59;;;;;;;20.60;8.32;;;0.00;99.90;;;;;;5089481;28;20058;-60
2023/01/26 09:07:26;;;;;;;16.00;5.57;;;0.00;99.90;;;;;;5089812;28;20458;-61
2023/01/26 09:09:53;;;;;;;18.95;7.68;;;0.00;99.90;;;;;;5075314;28;20056;-60
2023/01/26 09:12:19;;;;;;;14.70;5.35;;;0.00;99.90;;;;;;5118648;27;20043;-60
2023/01/26 09:14:46;;;;;;;14.80;6.18;;;0.10;99.90;;;;;;5132818;27;20440;-60
2023/01/26 09:17:13;;;;;;;19.90;8.02;;;0.20;99.90;;;;;;5094748;27;20032;-61
2023/01/26 09:19:39;;;;;;;42.42;12.55;;;0.20;99.90;;;;;;5110330;27;20046;-60
2023/01/26 09:22:06;;;;;;;44.08;13.18;;;0.20;99.90;;;;;;5100370;27;20035;-60
2023/01/26 09:24:33;;;;;;;41.70;14.32;;;0.30;99.90;;;;;;5125593;27;20127;-60
2023/01/26 09:26:59;;;;;;;28.02;10.18;;;0.40;99.90;;;;;;5113487;27;20114;-60
2023/01/26 09:29:26;;;;;;;25.60;9.52;;;0.40;99.90;;;;;;5131084;27;20099;-60
2023/01/26 09:31:53;;;;;;;14.02;5.53;;;0.40;99.90;;;;;;5092855;28;20044;-60
2023/01/26 09:34:20;;;;;;;20.20;7.93;;;0.40;99.90;;;;;;5075251;28;20036;-60
2023/01/26 09:36:46;;;;;;;20.75;7.18;;;0.40;99.90;;;;;;5111501;27;20092;-60
2023/01/26 09:39:13;;;;;;;16.75;5.50;;;0.30;99.90;;;;;;5122609;27;20044;-60
2023/01/26 09:42:03;;;;;;;12.60;5.78;;;0.40;99.90;;;;;;5127031;27;20039;-60
2023/01/26 09:44:38;;;;;;;28.92;10.68;;;0.50;99.90;;;;;;5119495;27;20101;-60
2023/01/26 09:47:16;;;;;;;22.85;9.40;;;0.60;99.90;;;;;;5100281;27;20092;-61
2023/01/26 09:49:48;;;;;;;26.42;10.00;;;0.60;99.90;;;;;;5130834;27;20047;-61
2023/01/26 09:52:38;;;;;;;28.67;10.70;;;0.70;99.90;;;;;;5134140;27;20050;-61
2023/01/26 09:55:14;;;;;;;24.73;9.63;;;0.60;99.90;;;;;;5108849;27;20036;-60
2023/01/26 09:58:00;;;;;;;17.33;6.40;;;0.60;99.90;;;;;;5126900;27;20063;-60
2023/01/26 10:00:39;;;;;;;27.00;9.20;;;0.60;99.90;;;;;;5093986;27;20397;-60
2023/01/26 10:03:19;;;;;;;22.98;9.48;;;0.60;99.90;;;;;;5092676;28;20439;-61
2023/01/26 10:06:10;;;;;;;28.98;9.80;;;0.70;99.90;;;;;;5111073;27;20553;-60
2023/01/26 10:08:59;;;;;;;26.80;9.18;;;0.80;99.90;;;;;;5112799;27;20109;-61
2023/01/26 10:11:36;;;;;;;22.45;9.20;;;0.80;99.90;;;;;;5092826;28;20040;-61
2023/01/26 10:14:22;;;;;;;23.13;9.15;;;0.80;99.90;;;;;;5098449;27;20028;-60
2023/01/26 10:16:51;;;;;;;28.83;10.38;;;0.60;99.90;;;;;;5133763;27;20039;-60
2023/01/26 10:19:36;;;;;;;29.75;10.88;;;0.60;99.90;;;;;;5099499;27;20101;-61
2023/01/26 10:22:10;;;;;;;27.70;11.43;;;0.70;99.90;;;;;;5092458;28;20040;-60
2023/01/26 10:24:38;;;;;;;27.27;10.73;;;0.60;99.90;;;;;;5096586;28;20104;-60
2023/01/26 10:27:09;;;;;;;21.70;8.77;;;0.60;99.90;;;;;;5130540;27;20062;-60
2023/01/26 10:29:36;;;;;;;33.65;12.30;;;0.50;99.90;;;;;;5092298;28;20044;-60
2023/01/26 10:32:02;;;;;;;33.55;10.65;;;0.60;99.90;;;;;;5125549;27;20517;-60
2023/01/26 10:34:31;;;;;;;23.90;10.25;;;0.60;99.90;;;;;;5092365;28;20097;-60
2023/01/26 10:37:10;;;;;;;34.13;12.10;;;0.80;99.90;;;;;;5091622;28;20040;-61
2023/01/26 10:39:58;;;;;;;32.72;11.98;;;0.90;99.90;;;;;;5124852;27;20077;-60
2023/01/26 10:42:30;;;;;;;32.30;12.00;;;0.90;99.90;;;;;;5091457;28;20097;-60
2023/01/26 10:44:58;;;;;;;29.17;10.57;;;0.90;99.90;;;;;;5092793;28;20051;-61
2023/01/26 10:47:26;;;;;;;27.95;11.00;;;1.00;99.90;;;;;;5103489;27;20118;-60
2023/01/26 10:50:23;;;;;;;31.60;11.20;;;0.90;99.90;;;;;;5133122;27;20050;-61
2023/01/26 10:53:01;;;;;;;28.83;10.93;;;0.90;99.90;;;;;;5100038;27;20520;-60
2023/01/26 10:55:29;;;;;;;;;;;0.80;99.90;;;;;;5096958;28;20052;-60
2023/01/26 10:57:56;;;;;;;30.33;10.27;;;0.80;99.90;;;;;;5114226;27;20394;-60
2023/01/26 11:00:40;;;;;;;23.40;7.57;;;0.80;99.90;;;;;;5132725;27;20558;-60
2023/01/26 11:03:13;;;;;;;31.35;10.75;;;0.80;99.90;;;;;;5092402;28;20040;-60
2023/01/26 11:05:42;;;;;;;26.08;10.88;;;0.70;99.90;;;;;;5102098;27;20445;-61
2023/01/26 11:08:34;;;;;;;28.08;10.57;;;0.80;99.90;;;;;;5133311;27;20054;-60
2023/01/26 11:11:02;;;;;;;30.45;11.05;;;0.90;99.90;;;;;;5117095;27;20538;-60
2023/01/26 11:13:29;;;;;;;30.67;11.35;;;0.90;99.90;;;;;;5090927;28;20040;-60
2023/01/26 11:16:22;;;;;;;29.70;11.32;;;1.00;99.90;;;;;;5087838;27;20101;-60
2023/01/26 11:19:02;;;;;;;30.27;9.32;;;1.00;99.90;;;;;;5127081;27;20040;-60
2023/01/26 11:21:32;;;;;;;28.25;10.48;;;1.00;99.90;;;;;;5097922;27;20442;-60
2023/01/26 11:24:16;;;;;;;26.65;9.52;;;0.90;99.90;;;;;;5118774;27;20082;-61
2023/01/26 11:27:21;;;;;;;26.10;9.88;;;0.90;99.90;;;;;;5130216;27;20103;-61
2023/01/26 11:30:23;;;;;;;25.65;10.10;;;0.90;99.90;;;;;;5124569;27;20071;-60
2023/01/26 11:32:58;;;;;;;25.35;10.25;;;1.00;99.90;;;;;;5132718;27;20043;-60
2023/01/26 11:35:38;;;;;;;27.88;10.80;;;1.00;99.90;;;;;;5090827;28;20474;-60
2023/01/26 11:38:31;;;;;;;25.00;9.85;;;1.00;99.90;;;;;;5091168;28;20493;-61
2023/01/26 11:41:10;;;;;;;24.20;10.73;;;1.00;99.90;;;;;;5117870;27;20043;-60
2023/01/26 11:43:36;;;;;;;26.33;9.38;;;1.10;99.90;;;;;;5131276;27;20031;-60
2023/01/26 11:46:27;;;;;;;24.67;9.00;;;1.20;99.90;;;;;;5092645;27;20430;-61
2023/01/26 11:49:09;;;;;;;28.88;8.40;;;1.20;99.90;;;;;;5110457;27;20048;-60
2023/01/26 11:51:59;;;;;;;24.98;9.50;;;1.20;99.90;;;;;;5132247;27;20560;-60
2023/01/26 11:54:44;;;;;;;26.15;9.43;;;1.20;99.90;;;;;;5121667;27;20044;-60
2023/01/26 11:57:22;;;;;;;23.30;10.20;;;1.20;99.90;;;;;;5131904;27;20239;-61
2023/01/26 12:00:00;;;;;;;28.02;11.45;;;1.10;99.90;;;;;;5102889;27;20093;-61
2023/01/26 12:02:34;;;;;;;31.30;10.57;;;1.10;99.90;;;;;;5097901;28;20047;-61
2023/01/26 12:05:22;;;;;;;27.35;10.48;;;1.20;99.90;;;;;;5096979;27;20035;-60
2023/01/26 12:07:55;;;;;;;24.90;10.02;;;1.20;99.90;;;;;;5130367;27;20582;-60
2023/01/26 12:10:33;;;;;;;33.30;11.30;;;1.20;99.90;;;;;;5091200;28;20112;-60
2023/01/26 12:13:17;;;;;;;30.00;10.30;;;1.20;99.90;;;;;;5093361;28;20044;-60
2023/01/26 12:15:52;;;;;;;22.83;9.93;;;1.20;99.90;;;;;;5106785;28;20040;-60
2023/01/26 12:18:25;;;;;;;30.83;11.55;;;1.20;99.90;;;;;;5112368;27;20043;-60
2023/01/26 12:21:12;;;;;;;25.17;9.95;;;1.20;99.90;;;;;;5131987;27;20394;-60
2023/01/26 12:23:49;;;;;;;31.73;11.10;;;1.20;99.90;;;;;;5105603;27;20048;-60
2023/01/26 12:26:19;;;;;;;25.02;9.73;;;1.20;99.90;;;;;;5095822;28;20049;-60
2023/01/26 12:28:49;;;;;;;27.42;9.60;;;1.10;99.90;;;;;;5110252;28;20096;-61
2023/01/26 12:31:28;;;;;;;25.95;10.52;;;0.90;99.90;;;;;;5131543;28;20035;-61
2023/01/26 12:33:55;;;;;;;27.20;10.48;;;0.90;99.90;;;;;;5094688;28;20051;-61
2023/01/26 12:36:37;;;;;;;;;;;0.80;99.90;;;;;;5096509;28;20043;-60
2023/01/26 12:39:28;;;;;;;32.53;8.98;;;0.80;99.90;;;;;;5100003;28;19919;-60
2023/01/26 12:42:17;;;;;;;31.95;10.30;;;0.70;99.90;;;;;;5099156;28;20040;-61
2023/01/26 12:45:01;;;;;;;29.35;10.43;;;0.70;99.90;;;;;;5103741;28;20435;-60
2023/01/26 12:47:45;;;;;;;24.95;9.82;;;0.70;99.90;;;;;;5104196;28;20110;-60
2023/01/26 12:50:30;;;;;;;22.80;9.82;;;0.60;99.90;;;;;;5094047;28;20040;-61
2023/01/26 12:53:12;;;;;;;25.08;9.65;;;0.60;99.90;;;;;;5095666;28;20051;-60
2023/01/26 12:55:44;;;;;;;19.88;9.25;;;0.70;99.90;;;;;;5113814;28;20040;-60
2023/01/26 12:58:22;;;;;;;21.98;9.15;;;0.60;99.90;;;;;;5119421;27;20035;-60
2023/01/26 13:00:55;;;;;;;;;;;0.60;99.90;;;;;;5094770;28;20389;-60
2023/01/26 13:03:27;;;;;;;24.92;9.15;;;0.60;99.90;;;;;;5101564;28;19924;-61
2023/01/26 13:05:57;;;;;;;24.23;9.98;;;0.60;99.90;;;;;;5102080;28;20089;-60
2023/01/26 13:08:29;;;;;;;22.92;8.65;;;0.60;99.90;;;;;;5106251;27;20097;-60
2023/01/26 13:10:58;;;;;;;24.20;8.82;;;0.50;99.90;;;;;;5121264;27;20077;-60
2023/01/26 13:13:51;;;;;;;22.63;9.95;;;0.40;99.90;;;;;;5094049;28;20493;-61
2023/01/26 13:16:18;;;;;;;22.85;8.98;;;0.40;99.90;;;;;;5092730;28;20036;-60
2023/01/26 13:18:51;;;;;;;24.60;9.63;;;0.40;99.90;;;;;;5129414;27;20433;-60
2023/01/26 13:21:27;;;;;;;26.05;9.40;;;0.30;99.90;;;;;;5109284;27;20044;-61
2023/01/26 13:23:54;;;;;;;24.13;9.10;;;0.30;99.90;;;;;;5131355;27;20067;-61
2023/01/26 13:26:21;;;;;;;18.83;8.15;;;0.20;99.90;;;;;;5105139;27;20058;-60
2023/01/26 13:28:48;;;;;;;13.60;5.65;;;0.20;99.90;;;;;;5094230;28;20071;-60
2023/01/26 13:31:31;;;;;;;;;;;0.20;99.90;;;;;;5102646;27;20060;-60
2023/01/26 13:34:02;;;;;;;17.95;7.38;;;0.20;99.90;;;;;;5134756;27;19926;-60
2023/01/26 13:36:33;;;;;;;21.55;8.63;;;0.20;99.90;;;;;;5096777;27;20082;-60
2023/01/26 13:39:09;;;;;;;19.30;8.13;;;0.20;99.90;;;;;;5096685;28;20043;-60
2023/01/26 13:41:44;;;;;;;19.73;7.88;;;0.10;99.90;;;;;;5098005;28;20044;-60
2023/01/26 13:44:19;;;;;;;20.05;8.48;;;0.10;99.90;;;;;;5111989;27;20036;-60
2023/01/26 13:47:04;;;;;;;25.10;9.00;;;0.10;99.90;;;;;;5128790;27;20051;-60
2023/01/26 13:49:40;;;;;;;19.88;8.43;;;0.20;99.90;;;;;;5119812;27;20527;-60
2023/01/26 13:52:25;;;;;;;18.05;7.30;;;0.10;99.90;;;;;;5108037;27;20043;-60
2023/01/26 13:54:56;;;;;;;20.63;8.30;;;0.20;99.90;;;;;;5130184;27;20113;-60
2023/01/26 13:57:28;;;;;;;19.60;8.65;;;0.20;99.90;;;;;;5115965;27;20044;-60
2023/01/26 14:00:00;;;;;;;18.20;7.78;;;0.20;99.90;;;;;;5075762;28;20036;-60